createdAt,value
2019-03-29T00:01:01.300Z,1172.75
2019-03-29T00:03:06.919Z,1202.53
2019-03-29T00:05:12.522Z,1122.75
2019-03-29T00:07:19.029Z,1076.33
2019-03-29T00:09:24.563Z,1133.97
2019-03-29T00:11:30.096Z,1128.78
2019-03-29T00:13:35.636Z,1098.95
2019-03-29T00:15:41.280Z,1066.40
2019-03-29T00:17:46.808Z,940.20
2019-03-29T00:19:52.333Z,981.02
2019-03-29T00:21:57.873Z,1095.28
2019-03-29T00:24:07.129Z,1128.08
2019-03-29T00:26:11.640Z,1067.55
2019-03-29T00:28:17.171Z,1021.20
2019-03-29T00:30:23.568Z,1005.77
2019-03-29T00:32:29.100Z,1037.13
2019-03-29T00:34:34.661Z,1070.45
2019-03-29T00:36:40.195Z,1093.83
2019-03-29T00:38:45.715Z,1119.75
2019-03-29T00:40:52.373Z,1089.38
2019-03-29T00:42:57.912Z,1044.15
2019-03-29T00:45:04.896Z,1029.83
2019-03-29T00:47:10.435Z,1063.05
2019-03-29T00:49:15.981Z,1030.05
2019-03-29T00:51:21.518Z,1031.90
2019-03-29T00:53:27.051Z,945.10
2019-03-29T00:55:32.572Z,894.35
2019-03-29T00:57:38.116Z,910.52
2019-03-29T00:59:43.669Z,888.00
2019-03-29T01:01:49.187Z,910.43
2019-03-29T01:03:54.812Z,838.23
2019-03-29T01:06:00.427Z,824.40
2019-03-29T01:08:08.019Z,828.90
2019-03-29T01:10:13.365Z,841.30
2019-03-29T01:12:18.929Z,857.20
2019-03-29T01:14:24.447Z,888.87
2019-03-29T01:16:30.451Z,896.00
2019-03-29T01:18:36.010Z,884.40
2019-03-29T01:20:41.537Z,918.07
2019-03-29T01:22:47.130Z,1055.85
2019-03-29T01:24:52.691Z,990.98
2019-03-29T01:26:58.217Z,925.28
2019-03-29T01:29:03.982Z,1062.05
2019-03-29T01:31:10.475Z,865.38
2019-03-29T01:33:16.101Z,1054.85
2019-03-29T01:35:21.752Z,871.92
2019-03-29T01:37:30.497Z,865.23
2019-03-29T01:39:36.151Z,848.60
2019-03-29T01:41:41.753Z,824.08
2019-03-29T01:43:47.425Z,883.45
2019-03-29T01:45:52.995Z,928.45
2019-03-29T01:47:58.641Z,909.90
2019-03-29T01:50:05.678Z,904.45
2019-03-29T01:52:12.255Z,932.05
2019-03-29T01:54:17.952Z,800.58
2019-03-29T01:56:23.636Z,754.10
2019-03-29T01:58:29.204Z,748.10
2019-03-29T02:00:36.268Z,732.65
2019-03-29T02:02:42.273Z,766.73
2019-03-29T02:04:47.940Z,723.10
2019-03-29T02:06:53.549Z,722.55
2019-03-29T02:08:59.299Z,714.73
2019-03-29T02:11:04.881Z,698.62
2019-03-29T02:13:10.636Z,719.55
2019-03-29T02:15:16.389Z,663.45
2019-03-29T02:17:22.042Z,676.35
2019-03-29T02:19:27.931Z,674.80
2019-03-29T02:21:33.612Z,688.08
2019-03-29T02:23:39.165Z,650.42
2019-03-29T02:25:45.020Z,642.03
2019-03-29T02:27:52.286Z,624.80
2019-03-29T02:29:58.672Z,646.25
2019-03-29T02:32:04.455Z,634.22
2019-03-29T02:34:10.077Z,671.63
2019-03-29T02:36:15.732Z,724.67
2019-03-29T02:38:23.626Z,717.58
2019-03-29T02:40:30.508Z,802.13
2019-03-29T02:42:36.077Z,853.37
2019-03-29T02:44:41.732Z,775.45
2019-03-29T02:46:47.293Z,802.35
2019-03-29T02:48:52.861Z,742.20
2019-03-29T02:50:58.546Z,677.65
2019-03-29T02:53:04.265Z,665.33
2019-03-29T02:55:09.976Z,716.15
2019-03-29T02:57:15.501Z,708.98
2019-03-29T02:59:40.404Z,741.02
2019-03-29T03:01:45.952Z,704.45
2019-03-29T03:03:51.482Z,685.27
2019-03-29T03:05:57.037Z,647.92
2019-03-29T03:08:02.584Z,664.37
2019-03-29T03:10:09.574Z,632.40
2019-03-29T03:12:15.128Z,623.23
2019-03-29T03:14:20.661Z,618.73
2019-03-29T03:16:26.184Z,654.85
2019-03-29T03:18:31.736Z,623.62
2019-03-29T03:20:37.331Z,587.70
2019-03-29T03:22:42.982Z,610.48
2019-03-29T03:24:48.550Z,627.65
2019-03-29T03:26:54.075Z,658.07
2019-03-29T03:28:59.602Z,715.40
2019-03-29T03:31:05.205Z,691.88
2019-03-29T03:33:10.724Z,648.05
2019-03-29T03:35:16.391Z,627.30
2019-03-29T03:37:21.936Z,668.40
2019-03-29T03:39:31.939Z,635.17
2019-03-29T03:41:34.618Z,669.77
2019-03-29T03:43:40.177Z,660.78
2019-03-29T03:45:45.713Z,654.30
2019-03-29T03:47:51.238Z,871.08
2019-03-29T03:50:00.635Z,794.92
2019-03-29T03:52:23.391Z,796.90
2019-03-29T03:54:29.067Z,1144.53
2019-03-29T03:56:35.141Z,887.67
2019-03-29T03:58:41.613Z,1728.50
2019-03-29T04:00:54.824Z,1558.80
2019-03-29T04:03:01.344Z,936.90
2019-03-29T04:05:07.338Z,1072.85
2019-03-29T04:07:12.857Z,1132.50
2019-03-29T04:09:19.469Z,1169.55
2019-03-29T04:11:25.003Z,635.42
2019-03-29T04:13:30.534Z,1094.65
2019-03-29T04:15:36.072Z,557.60
2019-03-29T04:17:41.596Z,1121.10
2019-03-29T04:19:47.142Z,623.40
2019-03-29T04:21:52.682Z,903.60
2019-03-29T04:23:59.274Z,510.67
2019-03-29T04:26:04.798Z,622.00
2019-03-29T04:28:10.505Z,1430.25
2019-03-29T04:30:16.237Z,1637.53
2019-03-29T04:32:21.765Z,1999.90
2019-03-29T04:34:27.300Z,703.98
2019-03-29T04:36:32.824Z,721.08
2019-03-29T04:38:38.424Z,1024.13
2019-03-29T04:40:44.033Z,859.07
2019-03-29T04:42:49.552Z,585.27
2019-03-29T04:44:55.088Z,564.08
2019-03-29T04:47:00.708Z,666.02
2019-03-29T04:49:06.796Z,930.60
2019-03-29T04:51:12.333Z,842.88
2019-03-29T04:53:17.867Z,782.70
2019-03-29T04:55:23.469Z,637.90
2019-03-29T04:57:28.991Z,969.82
2019-03-29T04:59:34.538Z,1166.63
2019-03-29T05:01:59.404Z,568.67
2019-03-29T05:04:04.934Z,834.42
2019-03-29T05:06:11.016Z,1294.38
2019-03-29T05:08:16.518Z,785.95
2019-03-29T05:10:22.138Z,657.05
2019-03-29T05:12:27.687Z,898.90
2019-03-29T05:14:33.233Z,735.60
2019-03-29T05:16:38.775Z,571.72
2019-03-29T05:18:44.335Z,715.05
2019-03-29T05:20:49.860Z,768.27
2019-03-29T05:22:55.404Z,595.40
2019-03-29T05:25:01.007Z,799.42
2019-03-29T05:27:06.532Z,681.95
2019-03-29T05:29:12.068Z,410.75
2019-03-29T05:31:17.638Z,513.25
2019-03-29T05:33:23.157Z,680.70
2019-03-29T05:35:28.675Z,547.63
2019-03-29T05:37:34.217Z,582.40
2019-03-29T05:39:39.737Z,609.20
2019-03-29T05:41:45.342Z,520.40
2019-03-29T05:43:50.884Z,487.15
2019-03-29T05:45:56.405Z,551.80
2019-03-29T05:48:02.014Z,462.18
2019-03-29T05:50:08.110Z,412.02
2019-03-29T05:52:13.636Z,473.05
2019-03-29T05:54:19.188Z,451.93
2019-03-29T05:56:24.739Z,449.70
2019-03-29T05:58:30.273Z,448.15
2019-03-29T06:00:35.807Z,408.23
2019-03-29T06:02:41.335Z,482.12
2019-03-29T06:04:46.870Z,595.12
2019-03-29T06:06:52.400Z,391.60
2019-03-29T06:08:57.932Z,466.92
2019-03-29T06:11:03.902Z,528.23
2019-03-29T06:13:09.495Z,485.52
2019-03-29T06:15:15.274Z,544.50
2019-03-29T06:17:20.872Z,527.40
2019-03-29T06:19:26.398Z,469.47
2019-03-29T06:21:31.934Z,470.38
2019-03-29T06:23:37.539Z,485.48
2019-03-29T06:25:43.081Z,491.62
2019-03-29T06:27:48.621Z,485.07
2019-03-29T06:29:54.148Z,436.25
2019-03-29T06:31:59.694Z,427.47
2019-03-29T06:34:05.302Z,401.70
2019-03-29T06:36:13.436Z,348.77
2019-03-29T06:38:20.392Z,343.82
2019-03-29T06:40:27.076Z,318.40
2019-03-29T06:42:32.606Z,290.10
2019-03-29T06:44:38.147Z,386.15
2019-03-29T06:46:43.702Z,316.68
2019-03-29T06:48:49.220Z,325.15
2019-03-29T06:50:54.756Z,328.65
2019-03-29T06:53:00.374Z,334.43
2019-03-29T06:55:06.442Z,299.52
2019-03-29T06:57:11.984Z,301.37
2019-03-29T06:59:17.579Z,295.10
2019-03-29T07:01:42.445Z,380.30
2019-03-29T07:03:47.960Z,406.07
2019-03-29T07:05:53.568Z,266.60
2019-03-29T07:07:59.089Z,258.52
2019-03-29T07:10:06.249Z,236.12
2019-03-29T07:12:11.878Z,229.07
2019-03-29T07:14:17.400Z,242.65
2019-03-29T07:16:22.996Z,252.87
2019-03-29T07:18:28.528Z,266.65
2019-03-29T07:20:34.059Z,268.63
2019-03-29T07:22:39.591Z,288.65
2019-03-29T07:24:45.128Z,284.45
2019-03-29T07:26:51.633Z,283.40
2019-03-29T07:28:57.170Z,294.80
2019-03-29T07:31:02.778Z,289.02
2019-03-29T07:33:08.309Z,292.18
2019-03-29T07:35:13.899Z,284.30
2019-03-29T07:37:19.452Z,270.50
2019-03-29T07:39:24.980Z,291.32
2019-03-29T07:41:32.100Z,283.23
2019-03-29T07:43:37.671Z,280.02
2019-03-29T07:45:43.203Z,244.62
2019-03-29T07:47:48.744Z,232.83
2019-03-29T07:49:54.280Z,213.03
2019-03-29T07:51:59.807Z,189.37
2019-03-29T07:54:05.406Z,210.32
2019-03-29T07:56:10.943Z,198.85
2019-03-29T07:58:16.544Z,202.45
2019-03-29T08:00:22.065Z,201.92
2019-03-29T08:02:28.947Z,224.35
2019-03-29T08:04:34.642Z,236.30
2019-03-29T08:06:40.163Z,248.03
2019-03-29T08:08:45.700Z,262.17
2019-03-29T08:10:53.804Z,253.77
2019-03-29T08:12:58.375Z,222.15
2019-03-29T08:15:09.386Z,242.37
2019-03-29T08:17:14.740Z,248.25
2019-03-29T08:19:20.420Z,237.02
2019-03-29T08:21:25.961Z,251.12
2019-03-29T08:23:31.510Z,234.85
2019-03-29T08:25:37.068Z,251.88
2019-03-29T08:27:42.688Z,256.47
2019-03-29T08:29:48.183Z,250.70
2019-03-29T08:31:55.587Z,258.27
2019-03-29T08:34:00.879Z,248.15
2019-03-29T08:36:06.490Z,234.15
2019-03-29T08:38:12.020Z,238.52
2019-03-29T08:40:17.565Z,221.15
2019-03-29T08:42:23.124Z,212.75
2019-03-29T08:44:28.674Z,217.93
2019-03-29T08:46:34.225Z,222.22
2019-03-29T08:48:59.169Z,189.35
2019-03-29T08:51:04.785Z,170.45
2019-03-29T08:53:10.333Z,196.25
2019-03-29T08:55:17.681Z,182.55
2019-03-29T08:57:23.163Z,197.30
2019-03-29T08:59:28.690Z,146.90
2019-03-29T09:01:34.534Z,139.77
2019-03-29T09:03:40.056Z,94.80
2019-03-29T09:05:45.795Z,97.15
2019-03-29T09:07:51.720Z,100.35
2019-03-29T09:09:57.320Z,99.97
2019-03-29T09:12:13.785Z,105.92
2019-03-29T09:14:10.153Z,49.90
2019-03-29T09:16:15.679Z,47.10
2019-03-29T09:18:21.275Z,37.45
2019-03-29T09:20:26.871Z,46.90
2019-03-29T09:22:32.456Z,45.38
2019-03-29T09:24:37.999Z,30.70
2019-03-29T09:26:43.552Z,24.25
2019-03-29T09:28:49.077Z,23.40
2019-03-29T09:30:56.561Z,16.25
2019-03-29T09:33:01.748Z,22.48
2019-03-29T09:35:07.523Z,21.25
2019-03-29T09:37:13.050Z,23.55
2019-03-29T09:39:18.616Z,22.55
2019-03-29T09:41:24.215Z,26.48
2019-03-29T09:43:29.737Z,24.30
2019-03-29T09:45:35.332Z,27.37
2019-03-29T09:47:41.129Z,25.50
2019-03-29T09:49:46.864Z,22.95
2019-03-29T09:51:52.422Z,23.65
2019-03-29T09:53:58.102Z,25.10
2019-03-29T09:56:03.770Z,27.35
2019-03-29T09:58:09.303Z,26.17
2019-03-29T10:00:20.947Z,22.13
2019-03-29T10:02:23.574Z,18.67
2019-03-29T10:04:29.097Z,26.57
2019-03-29T10:06:35.602Z,21.95
2019-03-29T10:08:41.122Z,21.10
2019-03-29T10:10:46.820Z,20.77
2019-03-29T10:12:52.405Z,20.50
2019-03-29T10:14:58.002Z,24.60
2019-03-29T10:17:03.633Z,23.52
2019-03-29T10:19:09.220Z,25.52
2019-03-29T10:21:17.215Z,28.52
2019-03-29T10:23:21.907Z,31.15
2019-03-29T10:25:27.505Z,27.52
2019-03-29T10:27:33.037Z,120.85
2019-03-29T10:29:38.594Z,35.70
2019-03-29T10:31:45.201Z,31.93
2019-03-29T10:33:50.794Z,25.40
2019-03-29T10:35:56.407Z,28.32
2019-03-29T10:38:02.088Z,25.35
2019-03-29T10:40:07.992Z,24.18
2019-03-29T10:42:13.581Z,23.52
2019-03-29T10:44:19.104Z,23.45
2019-03-29T10:46:24.727Z,31.77
2019-03-29T10:48:30.426Z,31.17
2019-03-29T10:50:36.023Z,38.30
2019-03-29T10:52:41.546Z,22.42
2019-03-29T10:54:49.768Z,19.35
2019-03-29T10:56:54.306Z,26.87
2019-03-29T10:58:59.904Z,27.58
2019-03-29T11:01:05.795Z,23.92
2019-03-29T11:03:11.511Z,22.85
2019-03-29T11:05:20.164Z,23.00
2019-03-29T11:07:25.777Z,23.45
2019-03-29T11:09:31.418Z,20.62
2019-03-29T11:11:37.026Z,40.55
2019-03-29T11:13:42.721Z,26.93
2019-03-29T11:15:48.245Z,49.75
2019-03-29T11:17:53.773Z,28.17
2019-03-29T11:19:59.320Z,21.02
2019-03-29T11:22:04.926Z,24.40
2019-03-29T11:24:10.458Z,22.22
2019-03-29T11:26:16.008Z,21.05
2019-03-29T11:28:21.667Z,19.48
2019-03-29T11:30:41.159Z,22.15
2019-03-29T11:32:34.601Z,23.85
2019-03-29T11:34:40.144Z,21.12
2019-03-29T11:36:45.684Z,24.02
2019-03-29T11:38:51.221Z,23.90
2019-03-29T11:40:56.905Z,18.62
2019-03-29T11:43:02.449Z,18.30
2019-03-29T11:45:08.629Z,20.25
2019-03-29T11:47:14.165Z,24.10
2019-03-29T11:49:19.699Z,20.12
2019-03-29T11:51:25.255Z,18.10
2019-03-29T11:53:30.784Z,16.73
2019-03-29T11:55:36.386Z,18.17
2019-03-29T11:57:41.944Z,16.52
2019-03-29T11:59:47.609Z,17.65
2019-03-29T12:01:53.174Z,16.50
2019-03-29T12:03:58.716Z,18.98
2019-03-29T12:06:04.457Z,19.45
2019-03-29T12:08:10.215Z,21.52
2019-03-29T12:10:15.831Z,17.67
2019-03-29T12:12:21.432Z,18.27
2019-03-29T12:14:28.028Z,16.48
2019-03-29T12:16:33.637Z,15.98
2019-03-29T12:18:39.232Z,15.95
2019-03-29T12:20:44.914Z,15.98
2019-03-29T12:22:50.446Z,15.88
2019-03-29T12:24:55.979Z,18.73
2019-03-29T12:27:01.577Z,14.93
2019-03-29T12:29:07.130Z,11.57
2019-03-29T12:31:13.796Z,10.20
2019-03-29T12:33:19.549Z,18.02
2019-03-29T12:35:25.094Z,10.78
2019-03-29T12:37:30.620Z,14.53
2019-03-29T12:39:36.148Z,24.07
2019-03-29T12:41:43.372Z,16.80
2019-03-29T12:43:55.431Z,11.90
2019-03-29T12:45:56.033Z,12.68
2019-03-29T12:48:01.563Z,13.88
2019-03-29T12:50:08.085Z,15.25
2019-03-29T12:52:13.611Z,14.78
2019-03-29T12:54:20.294Z,15.63
2019-03-29T12:56:25.802Z,13.32
2019-03-29T12:58:31.329Z,13.58
2019-03-29T13:00:37.133Z,15.10
2019-03-29T13:02:42.714Z,31.27
2019-03-29T13:04:48.298Z,26.42
2019-03-29T13:06:53.836Z,48.98
2019-03-29T13:08:59.351Z,17.80
2019-03-29T13:11:04.957Z,13.00
2019-03-29T13:13:10.565Z,13.18
2019-03-29T13:15:16.073Z,12.03
2019-03-29T13:17:21.590Z,11.63
2019-03-29T13:19:27.504Z,15.18
2019-03-29T13:21:38.775Z,15.25
2019-03-29T13:23:43.129Z,16.90
2019-03-29T13:25:48.744Z,18.80
2019-03-29T13:27:58.968Z,89.60
2019-03-29T13:30:01.499Z,45.17
2019-03-29T13:32:07.376Z,21.50
2019-03-29T13:34:12.974Z,14.03
2019-03-29T13:36:18.676Z,18.25
2019-03-29T13:38:24.220Z,12.35
2019-03-29T13:40:29.848Z,22.42
2019-03-29T13:42:35.402Z,29.57
2019-03-29T13:44:40.965Z,22.93
2019-03-29T13:46:46.581Z,23.05
2019-03-29T13:48:52.122Z,20.50
2019-03-29T13:50:59.455Z,34.80
2019-03-29T13:53:05.825Z,43.65
2019-03-29T13:55:11.499Z,19.70
2019-03-29T13:57:17.040Z,16.85
2019-03-29T13:59:22.556Z,21.42
2019-03-29T14:01:28.097Z,22.02
2019-03-29T14:03:33.628Z,20.95
2019-03-29T14:05:39.167Z,14.75
2019-03-29T14:07:44.757Z,16.85
2019-03-29T14:09:50.292Z,21.70
2019-03-29T14:11:55.816Z,21.73
2019-03-29T14:14:01.343Z,28.95
2019-03-29T14:16:06.873Z,20.40
2019-03-29T14:18:12.475Z,18.52
2019-03-29T14:20:23.733Z,17.80
2019-03-29T14:22:29.274Z,22.95
2019-03-29T14:24:34.811Z,17.40
2019-03-29T14:26:40.368Z,15.83
2019-03-29T14:28:45.896Z,18.10
2019-03-29T14:30:51.421Z,19.27
2019-03-29T14:32:56.955Z,20.35
2019-03-29T14:35:02.542Z,17.57
2019-03-29T14:37:08.078Z,19.85
2019-03-29T14:39:13.613Z,36.30
2019-03-29T14:41:19.170Z,27.93
2019-03-29T14:43:24.698Z,30.23
2019-03-29T14:45:30.443Z,149.30
2019-03-29T14:47:43.197Z,52.13
2019-03-29T14:49:43.188Z,26.68
2019-03-29T14:51:48.708Z,21.02
2019-03-29T14:53:54.265Z,20.70
2019-03-29T14:55:59.861Z,116.65
2019-03-29T14:58:05.410Z,31.27
2019-03-29T15:00:12.668Z,29.15
2019-03-29T15:02:18.210Z,111.28
2019-03-29T15:04:23.754Z,39.15
2019-03-29T15:06:29.276Z,40.45
2019-03-29T15:08:34.803Z,25.10
2019-03-29T15:10:40.415Z,25.08
2019-03-29T15:12:45.956Z,26.65
2019-03-29T15:15:05.197Z,27.52
2019-03-29T15:16:58.627Z,25.88
2019-03-29T15:19:04.237Z,21.33
2019-03-29T15:21:10.551Z,27.15
2019-03-29T15:23:16.323Z,24.30
2019-03-29T15:25:21.932Z,29.02
2019-03-29T15:27:27.502Z,26.85
2019-03-29T15:29:33.018Z,32.33
2019-03-29T15:31:38.544Z,20.85
2019-03-29T15:33:44.076Z,22.32
2019-03-29T15:35:49.605Z,37.95
2019-03-29T15:37:55.138Z,34.45
2019-03-29T15:40:00.657Z,28.52
2019-03-29T15:42:06.261Z,31.33
2019-03-29T15:44:11.886Z,36.00
2019-03-29T15:46:17.416Z,26.60
2019-03-29T15:48:22.945Z,25.20
2019-03-29T15:50:28.629Z,29.02
2019-03-29T15:52:34.176Z,30.43
2019-03-29T15:54:39.723Z,30.65
2019-03-29T15:56:45.274Z,28.80
2019-03-29T15:58:50.814Z,32.58
2019-03-29T16:00:56.348Z,36.83
2019-03-29T16:03:01.957Z,100.92
2019-03-29T16:05:07.632Z,66.40
2019-03-29T16:07:13.245Z,278.92
2019-03-29T16:09:18.806Z,260.75
2019-03-29T16:11:24.413Z,333.90
2019-03-29T16:13:29.950Z,92.62
2019-03-29T16:15:38.343Z,161.50
2019-03-29T16:17:43.757Z,208.90
2019-03-29T16:19:49.292Z,101.78
2019-03-29T16:21:54.877Z,91.05
2019-03-29T16:24:00.412Z,138.35
2019-03-29T16:26:05.941Z,45.55
2019-03-29T16:28:11.486Z,74.85
2019-03-29T16:30:17.140Z,71.30
2019-03-29T16:32:22.689Z,68.60
2019-03-29T16:34:28.230Z,63.95
2019-03-29T16:36:33.832Z,54.45
2019-03-29T16:38:39.372Z,46.88
2019-03-29T16:40:44.902Z,43.98
2019-03-29T16:42:50.523Z,62.43
2019-03-29T16:44:56.133Z,45.73
2019-03-29T16:47:01.684Z,42.17
2019-03-29T16:49:07.204Z,40.98
2019-03-29T16:51:12.803Z,41.92
2019-03-29T16:53:18.441Z,40.90
2019-03-29T16:55:23.985Z,42.15
2019-03-29T16:57:29.580Z,46.63
2019-03-29T16:59:35.151Z,46.75
2019-03-29T17:01:40.696Z,58.28
2019-03-29T17:03:46.312Z,52.13
2019-03-29T17:05:51.876Z,57.00
2019-03-29T17:07:57.409Z,51.88
2019-03-29T17:10:03.989Z,54.38
2019-03-29T17:12:09.517Z,58.83
2019-03-29T17:14:15.031Z,55.52
2019-03-29T17:16:30.377Z,78.35
2019-03-29T17:18:29.522Z,106.52
2019-03-29T17:20:35.340Z,101.85
2019-03-29T17:22:43.206Z,96.25
2019-03-29T17:24:56.778Z,87.97
2019-03-29T17:26:55.353Z,91.40
2019-03-29T17:29:00.869Z,93.58
2019-03-29T17:31:08.077Z,142.45
2019-03-29T17:33:13.724Z,158.80
2019-03-29T17:35:19.240Z,215.75
2019-03-29T17:37:24.872Z,192.92
2019-03-29T17:39:30.422Z,189.30
2019-03-29T17:41:35.949Z,178.23
2019-03-29T17:43:41.567Z,188.30
2019-03-29T17:45:47.268Z,194.97
2019-03-29T17:47:52.808Z,298.87
2019-03-29T17:49:58.346Z,283.87
2019-03-29T17:52:03.940Z,305.85
2019-03-29T17:54:09.517Z,335.88
2019-03-29T17:56:15.036Z,322.55
2019-03-29T17:58:20.555Z,303.88
2019-03-29T18:00:27.835Z,299.95
2019-03-29T18:02:33.437Z,313.77
2019-03-29T18:04:38.968Z,272.45
2019-03-29T18:06:46.961Z,248.87
2019-03-29T18:08:51.668Z,172.82
2019-03-29T18:10:57.212Z,157.93
2019-03-29T18:13:02.822Z,189.35
2019-03-29T18:15:09.705Z,196.45
2019-03-29T18:17:15.227Z,212.85
2019-03-29T18:19:20.810Z,239.68
2019-03-29T18:21:26.348Z,236.92
2019-03-29T18:23:32.025Z,257.85
2019-03-29T18:25:37.653Z,269.32
2019-03-29T18:27:43.181Z,301.18
2019-03-29T18:29:48.714Z,314.10
2019-03-29T18:31:54.427Z,383.32
2019-03-29T18:34:00.368Z,356.95
2019-03-29T18:36:06.041Z,319.05
2019-03-29T18:38:11.747Z,320.17
2019-03-29T18:40:27.340Z,317.43
2019-03-29T18:42:32.869Z,303.80
2019-03-29T18:44:38.418Z,354.90
2019-03-29T18:46:45.105Z,366.77
2019-03-29T18:48:50.864Z,381.50
2019-03-29T18:50:56.454Z,496.30
2019-03-29T18:53:02.122Z,547.10
2019-03-29T18:55:07.728Z,610.67
2019-03-29T18:57:13.288Z,590.83
2019-03-29T18:59:18.823Z,629.58
2019-03-29T19:01:24.493Z,657.55
2019-03-29T19:03:30.104Z,527.28
2019-03-29T19:05:35.700Z,404.57
2019-03-29T19:07:41.238Z,314.68
2019-03-29T19:09:47.154Z,243.60
2019-03-29T19:11:52.881Z,211.72
2019-03-29T19:13:58.472Z,197.37
2019-03-29T19:16:04.150Z,198.30
2019-03-29T19:18:09.683Z,208.13
2019-03-29T19:20:26.759Z,195.25
2019-03-29T19:22:22.655Z,207.57
2019-03-29T19:24:28.128Z,195.90
2019-03-29T19:26:33.658Z,176.18
2019-03-29T19:28:39.186Z,170.20
2019-03-29T19:30:44.870Z,180.03
2019-03-29T19:32:51.486Z,186.25
2019-03-29T19:34:57.025Z,191.43
2019-03-29T19:37:02.634Z,210.57
2019-03-29T19:39:08.257Z,219.13
2019-03-29T19:41:13.896Z,202.22
2019-03-29T19:43:19.517Z,214.90
2019-03-29T19:45:25.118Z,219.03
2019-03-29T19:47:30.683Z,220.57
2019-03-29T19:49:36.221Z,233.10
2019-03-29T19:51:41.765Z,291.65
2019-03-29T19:53:47.349Z,316.75
2019-03-29T19:55:52.939Z,531.37
2019-03-29T19:57:58.497Z,413.85
2019-03-29T20:00:12.673Z,612.40
2019-03-29T20:02:18.345Z,573.65
2019-03-29T20:04:23.880Z,610.63
2019-03-29T20:06:29.561Z,583.48
2019-03-29T20:08:35.048Z,567.55
2019-03-29T20:10:40.645Z,577.40
2019-03-29T20:12:46.198Z,577.83
2019-03-29T20:14:51.728Z,629.45
2019-03-29T20:16:57.270Z,626.48
2019-03-29T20:19:02.811Z,665.73
2019-03-29T20:21:08.342Z,680.75
2019-03-29T20:23:15.015Z,721.67
2019-03-29T20:25:20.560Z,739.65
2019-03-29T20:27:26.092Z,771.30
2019-03-29T20:29:31.664Z,803.37
2019-03-29T20:31:37.308Z,824.35
2019-03-29T20:33:42.842Z,832.73
2019-03-29T20:35:48.393Z,852.05
2019-03-29T20:37:54.111Z,857.53
2019-03-29T20:39:59.634Z,854.67
2019-03-29T20:42:05.224Z,863.95
2019-03-29T20:44:10.781Z,874.42
2019-03-29T20:46:16.308Z,863.92
2019-03-29T20:48:21.849Z,880.87
2019-03-29T20:50:27.415Z,893.85
2019-03-29T20:52:32.953Z,898.70
2019-03-29T20:54:38.504Z,910.65
2019-03-29T20:56:44.077Z,915.45
2019-03-29T20:58:49.613Z,908.38
2019-03-29T21:00:55.136Z,942.90
2019-03-29T21:03:00.779Z,1025.65
2019-03-29T21:05:07.070Z,1078.38
2019-03-29T21:07:12.675Z,902.40
2019-03-29T21:09:18.224Z,851.95
2019-03-29T21:11:23.824Z,845.63
2019-03-29T21:13:29.430Z,810.17
2019-03-29T21:15:35.028Z,811.60
2019-03-29T21:17:40.637Z,810.05
2019-03-29T21:19:46.176Z,779.70
2019-03-29T21:21:51.716Z,759.30
2019-03-29T21:23:57.708Z,771.12
2019-03-29T21:26:03.240Z,772.35
2019-03-29T21:28:08.787Z,821.03
2019-03-29T21:30:14.852Z,865.40
2019-03-29T21:32:20.373Z,863.38
2019-03-29T21:34:26.016Z,884.05
2019-03-29T21:36:31.558Z,860.62
2019-03-29T21:38:37.168Z,837.60
2019-03-29T21:40:42.833Z,845.73
2019-03-29T21:42:48.479Z,840.30
2019-03-29T21:44:54.014Z,830.75
2019-03-29T21:46:59.654Z,860.02
2019-03-29T21:49:05.505Z,870.52
2019-03-29T21:51:11.074Z,859.90
2019-03-29T21:53:16.692Z,855.05
2019-03-29T21:55:22.302Z,856.00
2019-03-29T21:57:27.906Z,861.77
2019-03-29T21:59:33.584Z,886.03
2019-03-29T22:01:40.365Z,972.10
2019-03-29T22:03:45.986Z,1047.23
2019-03-29T22:05:51.554Z,1006.02
2019-03-29T22:07:57.115Z,1065.18
2019-03-29T22:10:03.055Z,1095.40
2019-03-29T22:12:08.610Z,1096.33
2019-03-29T22:14:14.160Z,1213.30
2019-03-29T22:16:19.732Z,1216.13
2019-03-29T22:18:37.393Z,1184.88
2019-03-29T22:20:32.600Z,1200.60
2019-03-29T22:22:38.434Z,1184.38
2019-03-29T22:24:44.956Z,1155.50
2019-03-29T22:26:50.582Z,1132.45
2019-03-29T22:28:56.154Z,1167.75
2019-03-29T22:31:01.786Z,1136.35
2019-03-29T22:33:07.468Z,1150.98
2019-03-29T22:35:13.351Z,1148.68
2019-03-29T22:37:18.982Z,1120.70
2019-03-29T22:39:24.626Z,1095.03
2019-03-29T22:41:30.201Z,1070.53
2019-03-29T22:43:35.744Z,1050.53
2019-03-29T22:45:41.357Z,1045.43
2019-03-29T22:47:47.188Z,1028.80
2019-03-29T22:49:52.778Z,1027.80
2019-03-29T22:51:58.320Z,975.90
2019-03-29T22:54:04.016Z,935.02
2019-03-29T22:56:09.627Z,862.70
2019-03-29T22:58:15.165Z,833.83
2019-03-29T23:00:28.145Z,812.52
2019-03-29T23:02:35.275Z,825.50
2019-03-29T23:04:40.877Z,815.15
2019-03-29T23:06:46.433Z,790.45
2019-03-29T23:08:51.980Z,752.33
2019-03-29T23:10:57.528Z,764.80
2019-03-29T23:13:04.752Z,766.60
2019-03-29T23:15:11.246Z,760.70
2019-03-29T23:17:16.848Z,766.55
2019-03-29T23:19:22.415Z,761.00
2019-03-29T23:21:27.953Z,801.22
2019-03-29T23:23:33.513Z,835.55
2019-03-29T23:25:39.138Z,877.75
2019-03-29T23:27:44.778Z,886.40
2019-03-29T23:29:50.321Z,809.42
2019-03-29T23:31:56.038Z,809.98
2019-03-29T23:34:01.650Z,767.33
2019-03-29T23:36:07.268Z,695.73
2019-03-29T23:38:12.969Z,625.83
2019-03-29T23:40:18.583Z,625.20
2019-03-29T23:42:24.182Z,640.60
2019-03-29T23:44:29.806Z,602.90
2019-03-29T23:46:35.499Z,615.85
2019-03-29T23:48:41.106Z,634.98
2019-03-29T23:50:47.213Z,637.62
2019-03-29T23:52:52.935Z,650.77
2019-03-29T23:54:58.528Z,639.67
2019-03-29T23:57:04.194Z,645.23
2019-03-29T23:59:09.806Z,633.10
